sensor_id;sensor_type;location;lat;lon;timestamp;temperature;humidity
15143;DHT22;7672;50.834;6.286;2023-04-03T00:01:06;5.20;99.90
15143;DHT22;7672;50.834;6.286;2023-04-03T00:03:32;5.20;99.90
15143;DHT22;7672;50.834;6.286;2023-04-03T00:06:01;5.20;99.90
15143;DHT22;7672;50.834;6.286;2023-04-03T00:08:29;5.20;99.90
15143;DHT22;7672;50.834;6.286;2023-04-03T00:10:59;5.10;99.90
15143;DHT22;7672;50.834;6.286;2023-04-03T00:13:25;5.10;99.90
15143;DHT22;7672;50.834;6.286;2023-04-03T00:15:52;5.10;99.90
15143;DHT22;7672;50.834;6.286;2023-04-03T00:18:19;5.10;99.90
15143;DHT22;7672;50.834;6.286;2023-04-03T00:20:47;5.00;99.90
15143;DHT22;7672;50.834;6.286;2023-04-03T00:23:14;5.00;99.90
15143;DHT22;7672;50.834;6.286;2023-04-03T00:25:41;5.00;99.90
15143;DHT22;7672;50.834;6.286;2023-04-03T00:28:08;5.00;99.90
15143;DHT22;7672;50.834;6.286;2023-04-03T00:30:35;4.90;99.90
15143;DHT22;7672;50.834;6.286;2023-04-03T00:33:02;4.90;99.90
15143;DHT22;7672;50.834;6.286;2023-04-03T00:35:29;4.90;99.90
15143;DHT22;7672;50.834;6.286;2023-04-03T00:37:56;4.90;99.90
15143;DHT22;7672;50.834;6.286;2023-04-03T00:40:25;4.90;99.90
15143;DHT22;7672;50.834;6.286;2023-04-03T00:42:57;5.00;99.90
15143;DHT22;7672;50.834;6.286;2023-04-03T00:45:35;5.00;99.90
15143;DHT22;7672;50.834;6.286;2023-04-03T00:48:05;5.10;99.90
15143;DHT22;7672;50.834;6.286;2023-04-03T00:50:37;5.10;99.90
15143;DHT22;7672;50.834;6.286;2023-04-03T00:53:07;5.10;99.90
15143;DHT22;7672;50.834;6.286;2023-04-03T00:55:47;5.20;99.90
15143;DHT22;7672;50.834;6.286;2023-04-03T00:58:17;5.20;99.90
15143;DHT22;7672;50.834;6.286;2023-04-03T01:00:50;5.20;99.90
15143;DHT22;7672;50.834;6.286;2023-04-03T01:03:23;5.10;99.90
15143;DHT22;7672;50.834;6.286;2023-04-03T01:05:50;5.10;99.90
15143;DHT22;7672;50.834;6.286;2023-04-03T01:08:17;5.10;99.90
15143;DHT22;7672;50.834;6.286;2023-04-03T01:10:44;5.10;99.90
15143;DHT22;7672;50.834;6.286;2023-04-03T01:13:27;5.10;99.90
15143;DHT22;7672;50.834;6.286;2023-04-03T01:15:57;5.10;99.90
15143;DHT22;7672;50.834;6.286;2023-04-03T01:18:26;5.10;99.90
15143;DHT22;7672;50.834;6.286;2023-04-03T01:26:37;5.10;99.90
15143;DHT22;7672;50.834;6.286;2023-04-03T01:29:03;5.10;99.90
15143;DHT22;7672;50.834;6.286;2023-04-03T01:31:51;5.10;99.90
15143;DHT22;7672;50.834;6.286;2023-04-03T01:34:23;5.20;99.90
15143;DHT22;7672;50.834;6.286;2023-04-03T01:36:50;5.10;99.90
15143;DHT22;7672;50.834;6.286;2023-04-03T01:39:19;5.20;99.90
15143;DHT22;7672;50.834;6.286;2023-04-03T01:41:46;5.20;99.90
15143;DHT22;7672;50.834;6.286;2023-04-03T01:44:14;5.20;99.90
15143;DHT22;7672;50.834;6.286;2023-04-03T01:46:41;5.20;99.90
15143;DHT22;7672;50.834;6.286;2023-04-03T01:49:09;5.20;99.90
15143;DHT22;7672;50.834;6.286;2023-04-03T01:51:36;5.10;99.90
15143;DHT22;7672;50.834;6.286;2023-04-03T01:54:03;5.10;99.90
15143;DHT22;7672;50.834;6.286;2023-04-03T01:56:30;5.20;99.90
15143;DHT22;7672;50.834;6.286;2023-04-03T01:58:57;5.10;99.90
15143;DHT22;7672;50.834;6.286;2023-04-03T02:01:24;5.10;99.90
15143;DHT22;7672;50.834;6.286;2023-04-03T02:03:52;5.10;99.90
15143;DHT22;7672;50.834;6.286;2023-04-03T02:06:19;5.10;99.90
15143;DHT22;7672;50.834;6.286;2023-04-03T02:08:46;5.10;99.90
15143;DHT22;7672;50.834;6.286;2023-04-03T02:11:12;5.10;99.90
15143;DHT22;7672;50.834;6.286;2023-04-03T02:13:39;5.20;99.90
15143;DHT22;7672;50.834;6.286;2023-04-03T02:16:08;5.20;99.90
15143;DHT22;7672;50.834;6.286;2023-04-03T02:18:36;5.10;99.90
15143;DHT22;7672;50.834;6.286;2023-04-03T02:21:04;5.10;99.90
15143;DHT22;7672;50.834;6.286;2023-04-03T02:23:31;5.10;99.90
15143;DHT22;7672;50.834;6.286;2023-04-03T02:26:09;5.10;99.90
15143;DHT22;7672;50.834;6.286;2023-04-03T02:28:38;5.20;99.90
15143;DHT22;7672;50.834;6.286;2023-04-03T02:31:06;5.10;99.90
15143;DHT22;7672;50.834;6.286;2023-04-03T02:33:34;5.10;99.90
15143;DHT22;7672;50.834;6.286;2023-04-03T02:36:04;5.10;99.90
15143;DHT22;7672;50.834;6.286;2023-04-03T02:38:32;5.10;99.90
15143;DHT22;7672;50.834;6.286;2023-04-03T02:41:01;5.10;99.90
15143;DHT22;7672;50.834;6.286;2023-04-03T02:43:29;5.10;99.90
15143;DHT22;7672;50.834;6.286;2023-04-03T02:45:56;5.10;99.90
15143;DHT22;7672;50.834;6.286;2023-04-03T02:48:23;5.00;99.90
15143;DHT22;7672;50.834;6.286;2023-04-03T02:50:51;5.00;99.90
15143;DHT22;7672;50.834;6.286;2023-04-03T02:53:18;5.00;99.90
15143;DHT22;7672;50.834;6.286;2023-04-03T02:55:45;5.00;99.90
15143;DHT22;7672;50.834;6.286;2023-04-03T02:58:12;5.00;99.90
15143;DHT22;7672;50.834;6.286;2023-04-03T03:00:40;5.00;99.90
15143;DHT22;7672;50.834;6.286;2023-04-03T03:03:06;5.00;99.90
15143;DHT22;7672;50.834;6.286;2023-04-03T03:05:33;4.90;99.90
15143;DHT22;7672;50.834;6.286;2023-04-03T03:08:01;4.90;99.90
15143;DHT22;7672;50.834;6.286;2023-04-03T03:10:27;4.90;99.90
15143;DHT22;7672;50.834;6.286;2023-04-03T03:12:54;4.90;99.90
15143;DHT22;7672;50.834;6.286;2023-04-03T03:15:21;4.80;99.90
15143;DHT22;7672;50.834;6.286;2023-04-03T03:17:48;4.80;99.90
15143;DHT22;7672;50.834;6.286;2023-04-03T03:20:14;4.80;99.90
15143;DHT22;7672;50.834;6.286;2023-04-03T03:22:41;4.80;99.90
15143;DHT22;7672;50.834;6.286;2023-04-03T03:25:08;4.80;99.90
15143;DHT22;7672;50.834;6.286;2023-04-03T03:27:35;4.80;99.90
15143;DHT22;7672;50.834;6.286;2023-04-03T03:30:03;4.80;99.90
15143;DHT22;7672;50.834;6.286;2023-04-03T03:32:31;4.70;99.90
15143;DHT22;7672;50.834;6.286;2023-04-03T03:34:57;4.70;99.90
15143;DHT22;7672;50.834;6.286;2023-04-03T03:37:24;4.70;99.90
15143;DHT22;7672;50.834;6.286;2023-04-03T03:39:51;4.70;99.90
15143;DHT22;7672;50.834;6.286;2023-04-03T03:42:18;4.70;99.90
15143;DHT22;7672;50.834;6.286;2023-04-03T03:44:44;4.70;99.90
15143;DHT22;7672;50.834;6.286;2023-04-03T03:47:11;4.70;99.90
15143;DHT22;7672;50.834;6.286;2023-04-03T03:49:38;4.60;99.90
15143;DHT22;7672;50.834;6.286;2023-04-03T03:52:05;4.60;99.90
15143;DHT22;7672;50.834;6.286;2023-04-03T03:54:32;4.60;99.90
15143;DHT22;7672;50.834;6.286;2023-04-03T03:56:58;4.60;99.90
15143;DHT22;7672;50.834;6.286;2023-04-03T03:59:26;4.60;99.90
15143;DHT22;7672;50.834;6.286;2023-04-03T04:01:52;4.50;99.90
15143;DHT22;7672;50.834;6.286;2023-04-03T04:04:19;4.50;99.90
15143;DHT22;7672;50.834;6.286;2023-04-03T04:06:46;4.60;99.90
15143;DHT22;7672;50.834;6.286;2023-04-03T04:09:13;4.50;99.90
15143;DHT22;7672;50.834;6.286;2023-04-03T04:11:40;4.50;99.90
15143;DHT22;7672;50.834;6.286;2023-04-03T04:14:07;4.50;99.90
15143;DHT22;7672;50.834;6.286;2023-04-03T04:16:34;4.50;99.90
15143;DHT22;7672;50.834;6.286;2023-04-03T04:19:00;4.50;99.90
15143;DHT22;7672;50.834;6.286;2023-04-03T04:21:27;4.50;99.90
15143;DHT22;7672;50.834;6.286;2023-04-03T04:23:54;4.50;99.90
15143;DHT22;7672;50.834;6.286;2023-04-03T04:26:21;4.50;99.90
15143;DHT22;7672;50.834;6.286;2023-04-03T04:28:48;4.50;99.90
15143;DHT22;7672;50.834;6.286;2023-04-03T04:31:14;4.50;99.90
15143;DHT22;7672;50.834;6.286;2023-04-03T04:33:41;4.40;99.90
15143;DHT22;7672;50.834;6.286;2023-04-03T04:36:08;4.40;99.90
15143;DHT22;7672;50.834;6.286;2023-04-03T04:38:35;4.40;99.90
15143;DHT22;7672;50.834;6.286;2023-04-03T04:41:02;4.40;99.90
15143;DHT22;7672;50.834;6.286;2023-04-03T04:43:29;4.30;99.90
15143;DHT22;7672;50.834;6.286;2023-04-03T04:46:09;4.30;99.90
15143;DHT22;7672;50.834;6.286;2023-04-03T04:48:38;4.30;99.90
15143;DHT22;7672;50.834;6.286;2023-04-03T04:51:05;4.30;99.90
15143;DHT22;7672;50.834;6.286;2023-04-03T04:53:32;4.20;99.90
15143;DHT22;7672;50.834;6.286;2023-04-03T04:55:59;4.20;99.90
15143;DHT22;7672;50.834;6.286;2023-04-03T04:58:26;4.20;99.90
15143;DHT22;7672;50.834;6.286;2023-04-03T05:01:04;4.20;99.90
15143;DHT22;7672;50.834;6.286;2023-04-03T05:03:33;4.10;99.90
15143;DHT22;7672;50.834;6.286;2023-04-03T05:06:00;4.10;99.90
15143;DHT22;7672;50.834;6.286;2023-04-03T05:08:27;4.10;99.90
15143;DHT22;7672;50.834;6.286;2023-04-03T05:10:53;4.10;99.90
15143;DHT22;7672;50.834;6.286;2023-04-03T05:13:22;4.10;99.90
15143;DHT22;7672;50.834;6.286;2023-04-03T05:15:48;4.10;99.90
15143;DHT22;7672;50.834;6.286;2023-04-03T05:18:15;4.10;99.90
15143;DHT22;7672;50.834;6.286;2023-04-03T05:20:42;4.10;99.90
15143;DHT22;7672;50.834;6.286;2023-04-03T05:23:10;4.10;99.90
15143;DHT22;7672;50.834;6.286;2023-04-03T05:25:39;4.10;99.90
15143;DHT22;7672;50.834;6.286;2023-04-03T05:28:18;4.10;99.90
15143;DHT22;7672;50.834;6.286;2023-04-03T05:30:58;4.10;99.90
15143;DHT22;7672;50.834;6.286;2023-04-03T05:33:32;4.10;99.90
15143;DHT22;7672;50.834;6.286;2023-04-03T05:36:29;4.20;99.90
15143;DHT22;7672;50.834;6.286;2023-04-03T05:39:12;4.20;99.90
15143;DHT22;7672;50.834;6.286;2023-04-03T05:41:52;4.30;99.90
15143;DHT22;7672;50.834;6.286;2023-04-03T05:44:22;4.40;99.90
15143;DHT22;7672;50.834;6.286;2023-04-03T05:46:49;4.50;99.90
15143;DHT22;7672;50.834;6.286;2023-04-03T05:49:15;4.60;99.90
15143;DHT22;7672;50.834;6.286;2023-04-03T05:51:42;4.70;99.90
15143;DHT22;7672;50.834;6.286;2023-04-03T05:54:16;4.80;99.90
15143;DHT22;7672;50.834;6.286;2023-04-03T05:56:46;5.50;99.90
15143;DHT22;7672;50.834;6.286;2023-04-03T05:59:13;5.20;99.90
15143;DHT22;7672;50.834;6.286;2023-04-03T06:01:39;5.30;99.90
15143;DHT22;7672;50.834;6.286;2023-04-03T06:04:07;5.50;99.90
15143;DHT22;7672;50.834;6.286;2023-04-03T06:06:53;5.60;99.90
15143;DHT22;7672;50.834;6.286;2023-04-03T06:09:23;5.90;99.90
15143;DHT22;7672;50.834;6.286;2023-04-03T06:11:51;6.10;99.90
15143;DHT22;7672;50.834;6.286;2023-04-03T06:14:19;6.30;99.90
15143;DHT22;7672;50.834;6.286;2023-04-03T06:16:46;6.50;99.90
15143;DHT22;7672;50.834;6.286;2023-04-03T06:19:13;6.70;99.90
15143;DHT22;7672;50.834;6.286;2023-04-03T06:21:40;7.00;99.90
15143;DHT22;7672;50.834;6.286;2023-04-03T06:24:07;7.20;99.90
15143;DHT22;7672;50.834;6.286;2023-04-03T06:26:34;7.50;99.90
15143;DHT22;7672;50.834;6.286;2023-04-03T06:29:01;7.70;99.90
15143;DHT22;7672;50.834;6.286;2023-04-03T06:31:29;8.00;99.90
15143;DHT22;7672;50.834;6.286;2023-04-03T06:33:56;8.20;99.90
15143;DHT22;7672;50.834;6.286;2023-04-03T06:36:23;8.40;99.90
15143;DHT22;7672;50.834;6.286;2023-04-03T06:38:50;8.60;99.90
15143;DHT22;7672;50.834;6.286;2023-04-03T06:41:17;8.80;99.90
15143;DHT22;7672;50.834;6.286;2023-04-03T06:43:44;9.00;99.90
15143;DHT22;7672;50.834;6.286;2023-04-03T06:46:17;9.20;99.90
15143;DHT22;7672;50.834;6.286;2023-04-03T06:48:47;9.40;99.90
15143;DHT22;7672;50.834;6.286;2023-04-03T06:51:26;9.50;99.90
15143;DHT22;7672;50.834;6.286;2023-04-03T06:53:56;9.80;99.90
15143;DHT22;7672;50.834;6.286;2023-04-03T06:56:26;10.00;99.90
15143;DHT22;7672;50.834;6.286;2023-04-03T06:58:54;10.20;99.90
15143;DHT22;7672;50.834;6.286;2023-04-03T07:01:26;10.50;99.90
15143;DHT22;7672;50.834;6.286;2023-04-03T07:03:55;10.80;99.90
15143;DHT22;7672;50.834;6.286;2023-04-03T07:06:22;11.10;99.90
15143;DHT22;7672;50.834;6.286;2023-04-03T07:08:49;11.40;99.90
15143;DHT22;7672;50.834;6.286;2023-04-03T07:11:16;11.70;99.90
15143;DHT22;7672;50.834;6.286;2023-04-03T07:13:43;12.00;99.90
15143;DHT22;7672;50.834;6.286;2023-04-03T07:16:10;12.30;99.90
15143;DHT22;7672;50.834;6.286;2023-04-03T07:18:37;12.90;99.90
15143;DHT22;7672;50.834;6.286;2023-04-03T07:21:04;12.90;99.90
15143;DHT22;7672;50.834;6.286;2023-04-03T07:23:31;13.20;99.90
15143;DHT22;7672;50.834;6.286;2023-04-03T07:25:58;13.50;99.90
15143;DHT22;7672;50.834;6.286;2023-04-03T07:28:25;13.90;99.90
15143;DHT22;7672;50.834;6.286;2023-04-03T07:31:04;14.20;99.90
15143;DHT22;7672;50.834;6.286;2023-04-03T07:33:38;14.50;99.90
15143;DHT22;7672;50.834;6.286;2023-04-03T07:36:06;14.70;99.90
15143;DHT22;7672;50.834;6.286;2023-04-03T07:38:35;14.90;99.90
15143;DHT22;7672;50.834;6.286;2023-04-03T07:41:03;15.20;99.90
15143;DHT22;7672;50.834;6.286;2023-04-03T07:43:31;15.40;99.90
15143;DHT22;7672;50.834;6.286;2023-04-03T07:45:58;15.60;99.90
15143;DHT22;7672;50.834;6.286;2023-04-03T07:48:26;15.80;99.90
15143;DHT22;7672;50.834;6.286;2023-04-03T07:50:53;16.40;99.90
15143;DHT22;7672;50.834;6.286;2023-04-03T07:53:20;16.10;99.90
15143;DHT22;7672;50.834;6.286;2023-04-03T07:55:48;16.20;99.90
15143;DHT22;7672;50.834;6.286;2023-04-03T07:58:18;16.30;99.90
15143;DHT22;7672;50.834;6.286;2023-04-03T08:00:46;16.40;99.90
15143;DHT22;7672;50.834;6.286;2023-04-03T08:03:14;16.40;99.90
15143;DHT22;7672;50.834;6.286;2023-04-03T08:05:47;16.40;99.90
15143;DHT22;7672;50.834;6.286;2023-04-03T08:08:20;16.30;99.90
15143;DHT22;7672;50.834;6.286;2023-04-03T08:10:52;16.10;99.90
15143;DHT22;7672;50.834;6.286;2023-04-03T08:13:21;15.90;99.90
15143;DHT22;7672;50.834;6.286;2023-04-03T08:15:48;15.60;99.90
15143;DHT22;7672;50.834;6.286;2023-04-03T08:18:16;15.40;99.90
15143;DHT22;7672;50.834;6.286;2023-04-03T08:20:43;15.20;99.90
15143;DHT22;7672;50.834;6.286;2023-04-03T08:23:10;15.00;99.90
15143;DHT22;7672;50.834;6.286;2023-04-03T08:25:39;15.00;99.90
15143;DHT22;7672;50.834;6.286;2023-04-03T08:28:08;14.90;99.90
15143;DHT22;7672;50.834;6.286;2023-04-03T08:30:35;14.90;99.90
15143;DHT22;7672;50.834;6.286;2023-04-03T08:33:03;14.70;99.90
15143;DHT22;7672;50.834;6.286;2023-04-03T08:35:30;14.40;99.90
15143;DHT22;7672;50.834;6.286;2023-04-03T08:37:57;14.30;99.90
15143;DHT22;7672;50.834;6.286;2023-04-03T08:40:24;14.10;99.90
15143;DHT22;7672;50.834;6.286;2023-04-03T08:45:34;13.80;99.90
15143;DHT22;7672;50.834;6.286;2023-04-03T08:48:31;13.50;99.90
15143;DHT22;7672;50.834;6.286;2023-04-03T08:51:08;13.30;99.90
15143;DHT22;7672;50.834;6.286;2023-04-03T08:54:00;13.10;99.90
15143;DHT22;7672;50.834;6.286;2023-04-03T08:56:36;12.80;99.90
15143;DHT22;7672;50.834;6.286;2023-04-03T08:59:13;12.50;99.90
15143;DHT22;7672;50.834;6.286;2023-04-03T09:01:46;12.50;99.90
15143;DHT22;7672;50.834;6.286;2023-04-03T09:04:15;12.20;99.90
15143;DHT22;7672;50.834;6.286;2023-04-03T09:06:50;12.00;99.90
15143;DHT22;7672;50.834;6.286;2023-04-03T09:09:31;11.90;99.90
15143;DHT22;7672;50.834;6.286;2023-04-03T09:12:23;11.80;99.90
15143;DHT22;7672;50.834;6.286;2023-04-03T09:23:53;12.00;99.90
15143;DHT22;7672;50.834;6.286;2023-04-03T09:26:30;12.10;99.90
15143;DHT22;7672;50.834;6.286;2023-04-03T09:29:06;12.30;99.90
15143;DHT22;7672;50.834;6.286;2023-04-03T09:31:40;12.60;99.90
15143;DHT22;7672;50.834;6.286;2023-04-03T09:34:22;12.80;99.90
15143;DHT22;7672;50.834;6.286;2023-04-03T09:36:55;13.20;99.90
15143;DHT22;7672;50.834;6.286;2023-04-03T09:39:26;13.50;99.90
15143;DHT22;7672;50.834;6.286;2023-04-03T09:44:36;13.90;99.90
15143;DHT22;7672;50.834;6.286;2023-04-03T09:47:29;14.10;99.90
15143;DHT22;7672;50.834;6.286;2023-04-03T09:52:42;14.40;99.90
15143;DHT22;7672;50.834;6.286;2023-04-03T09:55:14;14.50;99.90
15143;DHT22;7672;50.834;6.286;2023-04-03T09:57:45;14.70;99.90
15143;DHT22;7672;50.834;6.286;2023-04-03T10:00:27;14.90;99.90
15143;DHT22;7672;50.834;6.286;2023-04-03T10:02:58;15.00;99.90
15143;DHT22;7672;50.834;6.286;2023-04-03T10:05:35;15.20;99.90
15143;DHT22;7672;50.834;6.286;2023-04-03T10:11:17;15.40;99.90
15143;DHT22;7672;50.834;6.286;2023-04-03T10:13:59;15.60;96.90
15143;DHT22;7672;50.834;6.286;2023-04-03T10:16:45;15.60;98.10
15143;DHT22;7672;50.834;6.286;2023-04-03T10:19:24;15.70;99.60
15143;DHT22;7672;50.834;6.286;2023-04-03T10:22:04;15.80;99.90
15143;DHT22;7672;50.834;6.286;2023-04-03T10:24:52;15.90;98.40
15143;DHT22;7672;50.834;6.286;2023-04-03T10:27:40;16.00;98.00
15143;DHT22;7672;50.834;6.286;2023-04-03T10:30:21;16.10;98.30
15143;DHT22;7672;50.834;6.286;2023-04-03T10:33:44;16.30;97.10
15143;DHT22;7672;50.834;6.286;2023-04-03T10:42:15;16.50;95.10
15143;DHT22;7672;50.834;6.286;2023-04-03T10:45:07;16.60;96.40
15143;DHT22;7672;50.834;6.286;2023-04-03T10:48:04;16.60;95.90
15143;DHT22;7672;50.834;6.286;2023-04-03T10:56:31;16.80;93.80
15143;DHT22;7672;50.834;6.286;2023-04-03T10:59:28;16.70;92.80
15143;DHT22;7672;50.834;6.286;2023-04-03T11:02:16;16.60;90.90
15143;DHT22;7672;50.834;6.286;2023-04-03T11:04:53;16.40;91.50
15143;DHT22;7672;50.834;6.286;2023-04-03T11:07:27;16.30;92.20
15143;DHT22;7672;50.834;6.286;2023-04-03T11:10:13;16.00;92.50
15143;DHT22;7672;50.834;6.286;2023-04-03T11:12:52;15.80;91.40
15143;DHT22;7672;50.834;6.286;2023-04-03T11:15:29;15.60;92.80
15143;DHT22;7672;50.834;6.286;2023-04-03T11:18:45;15.50;92.00
15143;DHT22;7672;50.834;6.286;2023-04-03T11:21:07;15.30;92.70
15143;DHT22;7672;50.834;6.286;2023-04-03T11:23:40;15.20;93.70
15143;DHT22;7672;50.834;6.286;2023-04-03T11:26:21;15.10;93.60
15143;DHT22;7672;50.834;6.286;2023-04-03T11:29:05;15.10;94.10
15143;DHT22;7672;50.834;6.286;2023-04-03T11:34:46;14.90;92.40
15143;DHT22;7672;50.834;6.286;2023-04-03T11:37:35;14.80;91.80
15143;DHT22;7672;50.834;6.286;2023-04-03T11:40:22;14.70;91.80
15143;DHT22;7672;50.834;6.286;2023-04-03T11:43:02;14.50;93.70
15143;DHT22;7672;50.834;6.286;2023-04-03T11:46:05;14.30;94.40
15143;DHT22;7672;50.834;6.286;2023-04-03T11:53:54;13.90;91.10
15143;DHT22;7672;50.834;6.286;2023-04-03T12:19:24;12.90;94.50
15143;DHT22;7672;50.834;6.286;2023-04-03T12:22:10;12.80;94.10
15143;DHT22;7672;50.834;6.286;2023-04-03T12:24:41;12.80;94.80
15143;DHT22;7672;50.834;6.286;2023-04-03T12:27:29;12.70;92.50
15143;DHT22;7672;50.834;6.286;2023-04-03T12:38:37;12.40;93.90
15143;DHT22;7672;50.834;6.286;2023-04-03T12:41:30;12.40;94.20
15143;DHT22;7672;50.834;6.286;2023-04-03T12:44:55;12.30;93.80
15143;DHT22;7672;50.834;6.286;2023-04-03T12:47:23;12.20;94.70
15143;DHT22;7672;50.834;6.286;2023-04-03T12:49:52;12.20;95.50
15143;DHT22;7672;50.834;6.286;2023-04-03T12:55:19;12.20;93.30
15143;DHT22;7672;50.834;6.286;2023-04-03T12:57:47;12.20;93.70
15143;DHT22;7672;50.834;6.286;2023-04-03T13:00:29;12.20;94.60
15143;DHT22;7672;50.834;6.286;2023-04-03T13:03:01;12.20;93.60
15143;DHT22;7672;50.834;6.286;2023-04-03T13:05:30;12.20;93.10
15143;DHT22;7672;50.834;6.286;2023-04-03T13:08:10;12.10;93.30
15143;DHT22;7672;50.834;6.286;2023-04-03T13:10:55;12.10;92.40
15143;DHT22;7672;50.834;6.286;2023-04-03T13:13:37;12.10;92.50
15143;DHT22;7672;50.834;6.286;2023-04-03T13:16:15;12.10;95.70
15143;DHT22;7672;50.834;6.286;2023-04-03T13:18:50;12.10;93.60
15143;DHT22;7672;50.834;6.286;2023-04-03T13:21:24;12.10;94.20
15143;DHT22;7672;50.834;6.286;2023-04-03T13:23:58;12.10;93.70
15143;DHT22;7672;50.834;6.286;2023-04-03T13:26:41;12.20;94.80
15143;DHT22;7672;50.834;6.286;2023-04-03T13:29:26;12.20;93.50
15143;DHT22;7672;50.834;6.286;2023-04-03T13:31:58;12.20;93.20
15143;DHT22;7672;50.834;6.286;2023-04-03T13:34:35;12.20;92.40
15143;DHT22;7672;50.834;6.286;2023-04-03T13:37:04;12.20;92.60
15143;DHT22;7672;50.834;6.286;2023-04-03T13:39:34;12.20;93.00
15143;DHT22;7672;50.834;6.286;2023-04-03T13:42:24;12.20;93.80
15143;DHT22;7672;50.834;6.286;2023-04-03T13:45:22;12.10;92.30
15143;DHT22;7672;50.834;6.286;2023-04-03T13:48:18;12.10;94.20
15143;DHT22;7672;50.834;6.286;2023-04-03T13:54:00;12.10;93.50
15143;DHT22;7672;50.834;6.286;2023-04-03T13:56:36;12.10;93.20
15143;DHT22;7672;50.834;6.286;2023-04-03T14:04:23;12.20;95.30
15143;DHT22;7672;50.834;6.286;2023-04-03T14:06:52;12.20;94.70
15143;DHT22;7672;50.834;6.286;2023-04-03T14:09:22;12.20;93.00
15143;DHT22;7672;50.834;6.286;2023-04-03T14:11:54;12.40;92.90
15143;DHT22;7672;50.834;6.286;2023-04-03T14:14:27;12.20;95.00
15143;DHT22;7672;50.834;6.286;2023-04-03T14:17:00;12.20;93.40
15143;DHT22;7672;50.834;6.286;2023-04-03T14:19:31;12.20;95.10
15143;DHT22;7672;50.834;6.286;2023-04-03T14:22:07;12.10;93.30
15143;DHT22;7672;50.834;6.286;2023-04-03T14:24:39;12.10;95.10
15143;DHT22;7672;50.834;6.286;2023-04-03T14:27:24;12.10;93.50
15143;DHT22;7672;50.834;6.286;2023-04-03T14:29:54;12.10;93.40
15143;DHT22;7672;50.834;6.286;2023-04-03T14:32:25;12.10;91.90
15143;DHT22;7672;50.834;6.286;2023-04-03T14:34:54;12.00;92.40
15143;DHT22;7672;50.834;6.286;2023-04-03T14:37:24;12.00;93.90
15143;DHT22;7672;50.834;6.286;2023-04-03T14:39:55;11.90;91.60
15143;DHT22;7672;50.834;6.286;2023-04-03T14:42:28;11.90;93.50
15143;DHT22;7672;50.834;6.286;2023-04-03T14:44:58;11.90;92.20
15143;DHT22;7672;50.834;6.286;2023-04-03T14:47:29;11.80;91.90
15143;DHT22;7672;50.834;6.286;2023-04-03T14:50:00;11.80;92.70
15143;DHT22;7672;50.834;6.286;2023-04-03T14:52:35;11.80;91.70
15143;DHT22;7672;50.834;6.286;2023-04-03T14:55:04;11.70;91.90
15143;DHT22;7672;50.834;6.286;2023-04-03T14:57:33;11.70;92.60
15143;DHT22;7672;50.834;6.286;2023-04-03T15:00:01;11.70;92.40
15143;DHT22;7672;50.834;6.286;2023-04-03T15:02:31;11.70;91.50
15143;DHT22;7672;50.834;6.286;2023-04-03T15:05:02;11.70;92.10
15143;DHT22;7672;50.834;6.286;2023-04-03T15:07:34;11.60;92.70
15143;DHT22;7672;50.834;6.286;2023-04-03T15:10:24;11.60;91.80
15143;DHT22;7672;50.834;6.286;2023-04-03T15:12:53;11.60;91.60
15143;DHT22;7672;50.834;6.286;2023-04-03T15:15:22;11.50;91.80
15143;DHT22;7672;50.834;6.286;2023-04-03T15:17:53;11.50;90.20
15143;DHT22;7672;50.834;6.286;2023-04-03T15:20:24;11.50;90.50
15143;DHT22;7672;50.834;6.286;2023-04-03T15:22:54;11.40;90.80
15143;DHT22;7672;50.834;6.286;2023-04-03T15:25:24;11.40;90.70
15143;DHT22;7672;50.834;6.286;2023-04-03T15:27:55;11.50;92.60
15143;DHT22;7672;50.834;6.286;2023-04-03T15:30:24;11.40;92.70
15143;DHT22;7672;50.834;6.286;2023-04-03T15:32:50;11.30;91.90
15143;DHT22;7672;50.834;6.286;2023-04-03T15:35:18;11.30;93.30
15143;DHT22;7672;50.834;6.286;2023-04-03T15:37:45;11.30;92.00
15143;DHT22;7672;50.834;6.286;2023-04-03T15:40:13;11.20;91.50
15143;DHT22;7672;50.834;6.286;2023-04-03T15:42:40;11.20;91.60
15143;DHT22;7672;50.834;6.286;2023-04-03T15:45:08;11.20;92.90
15143;DHT22;7672;50.834;6.286;2023-04-03T15:47:35;11.20;93.10
15143;DHT22;7672;50.834;6.286;2023-04-03T15:50:03;11.20;92.60
15143;DHT22;7672;50.834;6.286;2023-04-03T15:52:33;11.20;92.60
15143;DHT22;7672;50.834;6.286;2023-04-03T15:55:01;11.20;92.10
15143;DHT22;7672;50.834;6.286;2023-04-03T15:57:28;11.10;94.10
15143;DHT22;7672;50.834;6.286;2023-04-03T16:00:00;11.10;93.30
15143;DHT22;7672;50.834;6.286;2023-04-03T16:02:27;11.10;92.60
15143;DHT22;7672;50.834;6.286;2023-04-03T16:04:54;11.10;91.40
15143;DHT22;7672;50.834;6.286;2023-04-03T16:07:21;11.00;92.00
15143;DHT22;7672;50.834;6.286;2023-04-03T16:09:48;11.00;93.60
15143;DHT22;7672;50.834;6.286;2023-04-03T16:12:15;11.00;93.10
15143;DHT22;7672;50.834;6.286;2023-04-03T16:14:42;10.90;93.90
15143;DHT22;7672;50.834;6.286;2023-04-03T16:17:08;10.90;93.80
15143;DHT22;7672;50.834;6.286;2023-04-03T16:19:35;10.80;94.20
15143;DHT22;7672;50.834;6.286;2023-04-03T16:22:02;10.90;94.20
15143;DHT22;7672;50.834;6.286;2023-04-03T16:24:29;10.90;95.40
15143;DHT22;7672;50.834;6.286;2023-04-03T16:26:56;10.90;95.30
15143;DHT22;7672;50.834;6.286;2023-04-03T16:29:23;10.90;95.20
15143;DHT22;7672;50.834;6.286;2023-04-03T16:31:50;10.90;94.40
15143;DHT22;7672;50.834;6.286;2023-04-03T16:34:18;10.80;94.40
15143;DHT22;7672;50.834;6.286;2023-04-03T16:36:45;10.80;94.60
15143;DHT22;7672;50.834;6.286;2023-04-03T16:39:11;10.80;94.50
15143;DHT22;7672;50.834;6.286;2023-04-03T16:41:38;10.80;95.80
15143;DHT22;7672;50.834;6.286;2023-04-03T16:44:05;10.70;96.90
15143;DHT22;7672;50.834;6.286;2023-04-03T16:46:34;10.70;96.70
15143;DHT22;7672;50.834;6.286;2023-04-03T16:49:01;10.70;97.10
15143;DHT22;7672;50.834;6.286;2023-04-03T16:51:28;10.70;95.30
15143;DHT22;7672;50.834;6.286;2023-04-03T16:53:55;10.60;94.80
15143;DHT22;7672;50.834;6.286;2023-04-03T16:56:21;10.50;95.70
15143;DHT22;7672;50.834;6.286;2023-04-03T16:58:48;10.50;95.70
15143;DHT22;7672;50.834;6.286;2023-04-03T17:01:18;10.50;95.60
15143;DHT22;7672;50.834;6.286;2023-04-03T17:03:47;10.50;95.80
15143;DHT22;7672;50.834;6.286;2023-04-03T17:06:19;10.40;95.40
15143;DHT22;7672;50.834;6.286;2023-04-03T17:08:51;10.40;95.90
15143;DHT22;7672;50.834;6.286;2023-04-03T17:11:19;10.40;94.50
15143;DHT22;7672;50.834;6.286;2023-04-03T17:13:47;10.30;94.50
15143;DHT22;7672;50.834;6.286;2023-04-03T17:16:15;10.30;95.70
15143;DHT22;7672;50.834;6.286;2023-04-03T17:18:44;10.30;98.00
15143;DHT22;7672;50.834;6.286;2023-04-03T17:21:12;10.20;99.80
15143;DHT22;7672;50.834;6.286;2023-04-03T17:23:40;10.20;99.90
15143;DHT22;7672;50.834;6.286;2023-04-03T17:26:10;10.20;99.90
15143;DHT22;7672;50.834;6.286;2023-04-03T17:28:37;10.20;99.90
15143;DHT22;7672;50.834;6.286;2023-04-03T17:31:06;10.10;99.90
15143;DHT22;7672;50.834;6.286;2023-04-03T17:33:34;10.00;99.90
15143;DHT22;7672;50.834;6.286;2023-04-03T17:36:02;10.00;99.90
15143;DHT22;7672;50.834;6.286;2023-04-03T17:38:31;9.90;99.90
15143;DHT22;7672;50.834;6.286;2023-04-03T17:41:02;9.90;99.90
15143;DHT22;7672;50.834;6.286;2023-04-03T17:43:31;9.80;99.90
15143;DHT22;7672;50.834;6.286;2023-04-03T17:46:07;9.80;99.90
15143;DHT22;7672;50.834;6.286;2023-04-03T17:48:37;9.70;99.90